DAL1454 KDCA-KDTW
Flight info
| Callsign | DAL1454 |
|---|---|
| Flight time | 1h 5m |
| Altitude | 34000 |
| Route | HORTO4 BUFFR Q178 KOZAR KLYNK3 |
| Aircraft | A319/M-SDE3FGHIRWY/LB1 |
Departure
| Time | 2026-04-25 21:44 |
|---|---|
| Airport | Ronald Reagan Washington National Airport (KDCA) |
Arrival
| Time | 2026-04-25 22:49 |
|---|---|
| Airport | Detroit Metropolitan Wayne County Airport (KDTW) |
| Time | Latitude | Longitude | Altitude | Speed | Heading |
|---|---|---|---|---|---|
| 2026-04-25 21:10 | 38.85247 | -77.04158 | 24 ft | 0 kts | 162° |
| 2026-04-25 21:34 | 38.85252 | -77.04160 | 24 ft | 4 kts | 162° |
| 2026-04-25 21:35 | 38.85273 | -77.04169 | 28 ft | 3 kts | 162° |
| 2026-04-25 21:35 | 38.85292 | -77.04183 | 27 ft | 4 kts | 107° |
| 2026-04-25 21:35 | 38.85294 | -77.04197 | 28 ft | 3 kts | 72° |
| 2026-04-25 21:35 | 38.85298 | -77.04182 | 25 ft | 0 kts | 72° |
| 2026-04-25 21:39 | 38.85298 | -77.04179 | 24 ft | 1 kts | 72° |
| 2026-04-25 21:39 | 38.85304 | -77.04159 | 24 ft | 3 kts | 72° |
| 2026-04-25 21:39 | 38.85312 | -77.04126 | 26 ft | 4 kts | 72° |
| 2026-04-25 21:40 | 38.85322 | -77.04084 | 24 ft | 5 kts | 72° |
| 2026-04-25 21:40 | 38.85334 | -77.04033 | 24 ft | 6 kts | 73° |
| 2026-04-25 21:40 | 38.85341 | -77.03973 | 24 ft | 7 kts | 85° |
| 2026-04-25 21:40 | 38.85375 | -77.03939 | 24 ft | 8 kts | 358° |
| 2026-04-25 21:41 | 38.85438 | -77.03945 | 24 ft | 10 kts | 355° |
| 2026-04-25 21:41 | 38.85508 | -77.03952 | 24 ft | 11 kts | 356° |
| 2026-04-25 21:41 | 38.85584 | -77.03959 | 25 ft | 11 kts | 356° |
| 2026-04-25 21:41 | 38.85662 | -77.03968 | 27 ft | 11 kts | 355° |
| 2026-04-25 21:42 | 38.85736 | -77.03975 | 26 ft | 11 kts | 355° |
| 2026-04-25 21:42 | 38.85815 | -77.03983 | 27 ft | 12 kts | 355° |
| 2026-04-25 21:42 | 38.85903 | -77.03991 | 25 ft | 10 kts | 359° |
| 2026-04-25 21:42 | 38.85956 | -77.03973 | 24 ft | 8 kts | 17° |
| 2026-04-25 21:43 | 38.86014 | -77.03952 | 24 ft | 9 kts | 15° |
| 2026-04-25 21:43 | 38.86079 | -77.03928 | 24 ft | 11 kts | 15° |
| 2026-04-25 21:43 | 38.86102 | -77.03873 | 23 ft | 7 kts | 128° |
| 2026-04-25 21:43 | 38.86081 | -77.03869 | 23 ft | 3 kts | 176° |
| 2026-04-25 21:44 | 38.85920 | -77.03853 | 27 ft | 60 kts | 175° |
| 2026-04-25 21:44 | 38.85260 | -77.03787 | 23 ft | 128 kts | 175° |
| 2026-04-25 21:44 | 38.83109 | -77.03567 | 1009 ft | 158 kts | 173° |
| 2026-04-25 21:45 | 38.82009 | -77.03545 | 1727 ft | 158 kts | 174° |
| 2026-04-25 21:45 | 38.81289 | -77.03542 | 2183 ft | 156 kts | 175° |
| 2026-04-25 21:45 | 38.79852 | -77.03534 | 3094 ft | 152 kts | 176° |
| 2026-04-25 21:45 | 38.78758 | -77.03521 | 3568 ft | 166 kts | 178° |
| 2026-04-25 21:46 | 38.77523 | -77.03501 | 3884 ft | 189 kts | 179° |
| 2026-04-25 21:46 | 38.76148 | -77.03535 | 4149 ft | 213 kts | 189° |
| 2026-04-25 21:46 | 38.74834 | -77.04526 | 4512 ft | 231 kts | 235° |
| 2026-04-25 21:46 | 38.74288 | -77.06426 | 5332 ft | 230 kts | 262° |
| 2026-04-25 21:47 | 38.74179 | -77.08540 | 5917 ft | 249 kts | 270° |
| 2026-04-25 21:47 | 38.74192 | -77.10820 | 6589 ft | 262 kts | 271° |
| 2026-04-25 21:47 | 38.74205 | -77.13178 | 7415 ft | 267 kts | 269° |
| 2026-04-25 21:47 | 38.74172 | -77.15562 | 8339 ft | 270 kts | 267° |
| 2026-04-25 21:48 | 38.74088 | -77.17973 | 9288 ft | 272 kts | 265° |
| 2026-04-25 21:48 | 38.73977 | -77.20399 | 10252 ft | 274 kts | 266° |
| 2026-04-25 21:48 | 38.74237 | -77.22804 | 11059 ft | 284 kts | 285° |
| 2026-04-25 21:48 | 38.75248 | -77.25103 | 11368 ft | 314 kts | 309° |
| 2026-04-25 21:49 | 38.77098 | -77.26744 | 11893 ft | 335 kts | 333° |
| 2026-04-25 21:49 | 38.79291 | -77.27824 | 12666 ft | 340 kts | 336° |
| 2026-04-25 21:49 | 38.81513 | -77.28909 | 13467 ft | 343 kts | 335° |
| 2026-04-25 21:49 | 38.83753 | -77.30011 | 14207 ft | 346 kts | 335° |
| 2026-04-25 21:50 | 38.86000 | -77.31149 | 14898 ft | 348 kts | 333° |
| 2026-04-25 21:50 | 38.88233 | -77.32394 | 15578 ft | 351 kts | 332° |
| 2026-04-25 21:50 | 38.90460 | -77.33713 | 16253 ft | 354 kts | 331° |
| 2026-04-25 21:50 | 38.91937 | -77.34607 | 16695 ft | 356 kts | 330° |
| 2026-04-25 21:51 | 38.94947 | -77.36432 | 17558 ft | 360 kts | 330° |
| 2026-04-25 21:51 | 38.97225 | -77.37802 | 18199 ft | 364 kts | 331° |
| 2026-04-25 21:51 | 38.99507 | -77.39157 | 18742 ft | 367 kts | 331° |
| 2026-04-25 21:51 | 39.01838 | -77.40529 | 19273 ft | 371 kts | 331° |
| 2026-04-25 21:52 | 39.04193 | -77.41914 | 19821 ft | 374 kts | 331° |
| 2026-04-25 21:52 | 39.06572 | -77.43311 | 20385 ft | 377 kts | 331° |
| 2026-04-25 21:52 | 39.08966 | -77.44718 | 20927 ft | 381 kts | 331° |
| 2026-04-25 21:52 | 39.11394 | -77.46134 | 21457 ft | 385 kts | 333° |
| 2026-04-25 21:53 | 39.13955 | -77.47233 | 21982 ft | 392 kts | 339° |
| 2026-04-25 21:53 | 39.16581 | -77.48251 | 22464 ft | 397 kts | 339° |
| 2026-04-25 21:53 | 39.19239 | -77.49283 | 22980 ft | 401 kts | 339° |
| 2026-04-25 21:53 | 39.21881 | -77.50317 | 23490 ft | 404 kts | 339° |
| 2026-04-25 21:54 | 39.24580 | -77.51378 | 23910 ft | 407 kts | 339° |
| 2026-04-25 21:54 | 39.27296 | -77.52453 | 24327 ft | 410 kts | 338° |
| 2026-04-25 21:54 | 39.30072 | -77.53554 | 24737 ft | 413 kts | 338° |
| 2026-04-25 21:54 | 39.32822 | -77.54644 | 25148 ft | 415 kts | 338° |
| 2026-04-25 21:55 | 39.35594 | -77.55745 | 25540 ft | 418 kts | 338° |
| 2026-04-25 21:55 | 39.38386 | -77.56856 | 25970 ft | 422 kts | 338° |
| 2026-04-25 21:55 | 39.41137 | -77.58161 | 26373 ft | 419 kts | 328° |
| 2026-04-25 21:55 | 39.43587 | -77.60056 | 26782 ft | 414 kts | 317° |
| 2026-04-25 21:56 | 39.45709 | -77.62524 | 27160 ft | 409 kts | 307° |
| 2026-04-25 21:56 | 39.46901 | -77.64453 | 27426 ft | 405 kts | 299° |
| 2026-04-25 21:56 | 39.48613 | -77.68690 | 28004 ft | 399 kts | 287° |
| 2026-04-25 21:56 | 39.49613 | -77.72053 | 28485 ft | 401 kts | 286° |
| 2026-04-25 21:57 | 39.50620 | -77.75416 | 28945 ft | 402 kts | 287° |
| 2026-04-25 21:57 | 39.51638 | -77.78798 | 29400 ft | 403 kts | 287° |
| 2026-04-25 21:57 | 39.52653 | -77.82175 | 29802 ft | 404 kts | 286° |
| 2026-04-25 21:57 | 39.53675 | -77.85577 | 30165 ft | 405 kts | 286° |
| 2026-04-25 21:58 | 39.54690 | -77.88936 | 30480 ft | 407 kts | 287° |
| 2026-04-25 21:58 | 39.55735 | -77.92344 | 30786 ft | 408 kts | 287° |
| 2026-04-25 21:58 | 39.56794 | -77.95770 | 31086 ft | 410 kts | 287° |
| 2026-04-25 21:58 | 39.57860 | -77.99210 | 31320 ft | 413 kts | 287° |
| 2026-04-25 21:59 | 39.58908 | -78.02611 | 31578 ft | 416 kts | 287° |
| 2026-04-25 21:59 | 39.59977 | -78.06099 | 31857 ft | 417 kts | 286° |
| 2026-04-25 21:59 | 39.61050 | -78.09602 | 32213 ft | 417 kts | 286° |
| 2026-04-25 22:00 | 39.63176 | -78.16561 | 33039 ft | 413 kts | 286° |
| 2026-04-25 22:00 | 39.64212 | -78.19972 | 33477 ft | 411 kts | 286° |
| 2026-04-25 22:00 | 39.65256 | -78.23415 | 33833 ft | 410 kts | 285° |
| 2026-04-25 22:00 | 39.66295 | -78.26846 | 33932 ft | 403 kts | 285° |
| 2026-04-25 22:01 | 39.68315 | -78.33477 | 33921 ft | 391 kts | 285° |
| 2026-04-25 22:01 | 39.69964 | -78.38933 | 33924 ft | 390 kts | 285° |
| 2026-04-25 22:02 | 39.72252 | -78.46548 | 33918 ft | 389 kts | 285° |
| 2026-04-25 22:02 | 39.74130 | -78.52792 | 33916 ft | 389 kts | 285° |
| 2026-04-25 22:03 | 39.76097 | -78.59345 | 33917 ft | 389 kts | 285° |
| 2026-04-25 22:03 | 39.78060 | -78.65888 | 33915 ft | 389 kts | 285° |
| 2026-04-25 22:04 | 39.80013 | -78.72442 | 33900 ft | 389 kts | 284° |
| 2026-04-25 22:04 | 39.81957 | -78.78980 | 33921 ft | 390 kts | 285° |
| 2026-04-25 22:05 | 39.83919 | -78.85572 | 33913 ft | 391 kts | 285° |
| 2026-04-25 22:05 | 39.85879 | -78.92182 | 33904 ft | 391 kts | 284° |
| 2026-04-25 22:06 | 39.87833 | -78.98793 | 33893 ft | 392 kts | 284° |
| 2026-04-25 22:06 | 39.89787 | -79.05421 | 33883 ft | 392 kts | 284° |
| 2026-04-25 22:07 | 39.91410 | -79.10934 | 33884 ft | 393 kts | 284° |
| 2026-04-25 22:07 | 39.93680 | -79.18660 | 33875 ft | 394 kts | 283° |
| 2026-04-25 22:08 | 39.95629 | -79.25334 | 33888 ft | 394 kts | 283° |
| 2026-04-25 22:08 | 39.97579 | -79.32013 | 33900 ft | 394 kts | 283° |
| 2026-04-25 22:09 | 39.99513 | -79.38659 | 33926 ft | 395 kts | 283° |
| 2026-04-25 22:09 | 40.02163 | -79.45053 | 33941 ft | 408 kts | 295° |
| 2026-04-25 22:10 | 40.05345 | -79.51206 | 33919 ft | 409 kts | 295° |
| 2026-04-25 22:10 | 40.08516 | -79.57386 | 33911 ft | 410 kts | 295° |
| 2026-04-25 22:11 | 40.11670 | -79.63543 | 33915 ft | 411 kts | 295° |
| 2026-04-25 22:11 | 40.14844 | -79.69755 | 33904 ft | 411 kts | 295° |
| 2026-04-25 22:12 | 40.18017 | -79.75978 | 33904 ft | 411 kts | 295° |
| 2026-04-25 22:12 | 40.20653 | -79.81154 | 33930 ft | 412 kts | 295° |
| 2026-04-25 22:13 | 40.24365 | -79.88459 | 33916 ft | 413 kts | 295° |
| 2026-04-25 22:13 | 40.27521 | -79.94696 | 33916 ft | 414 kts | 295° |
| 2026-04-25 22:14 | 40.30723 | -80.01019 | 33919 ft | 414 kts | 295° |
| 2026-04-25 22:14 | 40.33889 | -80.07274 | 33923 ft | 415 kts | 295° |
| 2026-04-25 22:15 | 40.37069 | -80.13575 | 33934 ft | 414 kts | 295° |
| 2026-04-25 22:16 | 40.41822 | -80.23044 | 33964 ft | 414 kts | 294° |
| 2026-04-25 22:16 | 40.44966 | -80.29317 | 33963 ft | 414 kts | 294° |
| 2026-04-25 22:17 | 40.48125 | -80.35628 | 33957 ft | 414 kts | 294° |
| 2026-04-25 22:17 | 40.51282 | -80.41940 | 33966 ft | 413 kts | 294° |
| 2026-04-25 22:18 | 40.54432 | -80.48246 | 33975 ft | 412 kts | 294° |
| 2026-04-25 22:18 | 40.57546 | -80.54509 | 33994 ft | 411 kts | 293° |
| 2026-04-25 22:19 | 40.60458 | -80.60896 | 33986 ft | 402 kts | 287° |
| 2026-04-25 22:19 | 40.63004 | -80.67451 | 33982 ft | 402 kts | 287° |
| 2026-04-25 22:20 | 40.65559 | -80.74001 | 33981 ft | 401 kts | 287° |
| 2026-04-25 22:20 | 40.68098 | -80.80541 | 33973 ft | 401 kts | 287° |
| 2026-04-25 22:21 | 40.70615 | -80.87044 | 33971 ft | 401 kts | 287° |
| 2026-04-25 22:21 | 40.73151 | -80.93591 | 33969 ft | 401 kts | 289° |
| 2026-04-25 22:22 | 40.75692 | -81.00162 | 33949 ft | 403 kts | 289° |
| 2026-04-25 22:22 | 40.78233 | -81.06768 | 33955 ft | 404 kts | 289° |
| 2026-04-25 22:23 | 40.80780 | -81.13407 | 33970 ft | 406 kts | 291° |
| 2026-04-25 22:23 | 40.83308 | -81.20020 | 33967 ft | 407 kts | 291° |
| 2026-04-25 22:24 | 40.85853 | -81.26694 | 33970 ft | 407 kts | 291° |
| 2026-04-25 22:24 | 40.88401 | -81.33380 | 33986 ft | 407 kts | 292° |
| 2026-04-25 22:25 | 40.90945 | -81.40059 | 33991 ft | 407 kts | 292° |
| 2026-04-25 22:25 | 40.93469 | -81.46692 | 33992 ft | 406 kts | 292° |
| 2026-04-25 22:26 | 40.95997 | -81.53364 | 33991 ft | 406 kts | 292° |
| 2026-04-25 22:26 | 40.98522 | -81.60044 | 34000 ft | 406 kts | 292° |
| 2026-04-25 22:27 | 41.01039 | -81.66729 | 34008 ft | 405 kts | 293° |
| 2026-04-25 22:27 | 41.03550 | -81.73418 | 33958 ft | 407 kts | 293° |
| 2026-04-25 22:27 | 41.04810 | -81.76768 | 33680 ft | 406 kts | 293° |
| 2026-04-25 22:28 | 41.06068 | -81.80115 | 33431 ft | 406 kts | 294° |
| 2026-04-25 22:28 | 41.07311 | -81.83430 | 33170 ft | 407 kts | 293° |
| 2026-04-25 22:28 | 41.08568 | -81.86790 | 32903 ft | 407 kts | 293° |
| 2026-04-25 22:28 | 41.09826 | -81.90157 | 32616 ft | 408 kts | 293° |
| 2026-04-25 22:29 | 41.11084 | -81.93533 | 32093 ft | 408 kts | 293° |
| 2026-04-25 22:29 | 41.12340 | -81.96906 | 31539 ft | 409 kts | 293° |
| 2026-04-25 22:29 | 41.13603 | -82.00297 | 30993 ft | 410 kts | 294° |
| 2026-04-25 22:30 | 41.16120 | -82.07054 | 29826 ft | 411 kts | 294° |
| 2026-04-25 22:30 | 41.17376 | -82.10436 | 29271 ft | 407 kts | 294° |
| 2026-04-25 22:30 | 41.18620 | -82.13792 | 28728 ft | 403 kts | 294° |
| 2026-04-25 22:30 | 41.19436 | -82.15998 | 28373 ft | 401 kts | 294° |
| 2026-04-25 22:31 | 41.21073 | -82.20420 | 27663 ft | 398 kts | 295° |
| 2026-04-25 22:31 | 41.22502 | -82.23566 | 27127 ft | 397 kts | 304° |
| 2026-04-25 22:31 | 41.24337 | -82.26300 | 26568 ft | 397 kts | 315° |
| 2026-04-25 22:31 | 41.26480 | -82.28618 | 25993 ft | 396 kts | 320° |
| 2026-04-25 22:32 | 41.28644 | -82.30865 | 25423 ft | 394 kts | 320° |
| 2026-04-25 22:32 | 41.30767 | -82.33083 | 24866 ft | 392 kts | 320° |
| 2026-04-25 22:32 | 41.32901 | -82.35315 | 24296 ft | 390 kts | 321° |
| 2026-04-25 22:32 | 41.35022 | -82.37539 | 23772 ft | 387 kts | 321° |
| 2026-04-25 22:33 | 41.37124 | -82.39750 | 23129 ft | 383 kts | 321° |
| 2026-04-25 22:33 | 41.39197 | -82.41935 | 22527 ft | 377 kts | 322° |
| 2026-04-25 22:33 | 41.41235 | -82.44084 | 22024 ft | 371 kts | 323° |
| 2026-04-25 22:33 | 41.43258 | -82.46217 | 21485 ft | 370 kts | 323° |
| 2026-04-25 22:34 | 41.45268 | -82.48335 | 20955 ft | 368 kts | 323° |
| 2026-04-25 22:34 | 41.47273 | -82.50451 | 20414 ft | 367 kts | 323° |
| 2026-04-25 22:34 | 41.49264 | -82.52553 | 19911 ft | 362 kts | 323° |
| 2026-04-25 22:34 | 41.51204 | -82.54608 | 19386 ft | 359 kts | 323° |
| 2026-04-25 22:35 | 41.53158 | -82.56676 | 18871 ft | 358 kts | 323° |
| 2026-04-25 22:35 | 41.55103 | -82.58733 | 18459 ft | 354 kts | 323° |
| 2026-04-25 22:35 | 41.57015 | -82.60757 | 17859 ft | 349 kts | 323° |
| 2026-04-25 22:35 | 41.58906 | -82.62760 | 17244 ft | 345 kts | 323° |
| 2026-04-25 22:36 | 41.60782 | -82.64747 | 16762 ft | 343 kts | 324° |
| 2026-04-25 22:36 | 41.62642 | -82.66719 | 16270 ft | 341 kts | 324° |
| 2026-04-25 22:36 | 41.64497 | -82.68689 | 15780 ft | 339 kts | 324° |
| 2026-04-25 22:36 | 41.66335 | -82.70648 | 15289 ft | 338 kts | 324° |
| 2026-04-25 22:37 | 41.68166 | -82.72600 | 14804 ft | 336 kts | 324° |
| 2026-04-25 22:37 | 41.69964 | -82.74517 | 14382 ft | 333 kts | 324° |
| 2026-04-25 22:37 | 41.71761 | -82.76433 | 14002 ft | 326 kts | 324° |
| 2026-04-25 22:37 | 41.73499 | -82.78288 | 13875 ft | 314 kts | 324° |
| 2026-04-25 22:38 | 41.75148 | -82.80164 | 13574 ft | 310 kts | 317° |
| 2026-04-25 22:38 | 41.76604 | -82.82274 | 13283 ft | 307 kts | 315° |
| 2026-04-25 22:38 | 41.78021 | -82.84347 | 13095 ft | 296 kts | 315° |
| 2026-04-25 22:38 | 41.79402 | -82.86373 | 12601 ft | 293 kts | 315° |
| 2026-04-25 22:39 | 41.80778 | -82.88387 | 12078 ft | 291 kts | 315° |
| 2026-04-25 22:39 | 41.82135 | -82.90374 | 11669 ft | 288 kts | 315° |
| 2026-04-25 22:39 | 41.83487 | -82.92356 | 11264 ft | 288 kts | 315° |
| 2026-04-25 22:39 | 41.84796 | -82.94350 | 10887 ft | 290 kts | 309° |
| 2026-04-25 22:40 | 41.85765 | -82.96717 | 10618 ft | 289 kts | 300° |
| 2026-04-25 22:40 | 41.86670 | -82.99118 | 10306 ft | 288 kts | 300° |
| 2026-04-25 22:40 | 41.87575 | -83.01510 | 9997 ft | 287 kts | 300° |
| 2026-04-25 22:40 | 41.88475 | -83.03892 | 9683 ft | 285 kts | 300° |
| 2026-04-25 22:41 | 41.89369 | -83.06261 | 9357 ft | 284 kts | 300° |
| 2026-04-25 22:41 | 41.90255 | -83.08612 | 9029 ft | 282 kts | 300° |
| 2026-04-25 22:41 | 41.91124 | -83.10922 | 8702 ft | 280 kts | 300° |
| 2026-04-25 22:41 | 41.91994 | -83.13245 | 8376 ft | 278 kts | 300° |
| 2026-04-25 22:42 | 41.92858 | -83.15555 | 8054 ft | 276 kts | 300° |
| 2026-04-25 22:42 | 41.93718 | -83.17852 | 7724 ft | 275 kts | 300° |
| 2026-04-25 22:42 | 41.94572 | -83.20135 | 7408 ft | 272 kts | 300° |
| 2026-04-25 22:42 | 41.95412 | -83.22386 | 7129 ft | 266 kts | 300° |
| 2026-04-25 22:43 | 41.96230 | -83.24581 | 6867 ft | 260 kts | 300° |
| 2026-04-25 22:43 | 41.97029 | -83.26727 | 6607 ft | 254 kts | 300° |
| 2026-04-25 22:43 | 41.97811 | -83.28825 | 6340 ft | 248 kts | 301° |
| 2026-04-25 22:43 | 41.98575 | -83.30878 | 6061 ft | 243 kts | 301° |
| 2026-04-25 22:44 | 41.99313 | -83.32866 | 5790 ft | 238 kts | 301° |
| 2026-04-25 22:44 | 42.00045 | -83.34836 | 5513 ft | 233 kts | 301° |
| 2026-04-25 22:44 | 42.00762 | -83.36766 | 5265 ft | 228 kts | 301° |
| 2026-04-25 22:44 | 42.01598 | -83.38521 | 5018 ft | 218 kts | 319° |
| 2026-04-25 22:45 | 42.02828 | -83.39609 | 4697 ft | 209 kts | 340° |
| 2026-04-25 22:45 | 42.04160 | -83.40342 | 4357 ft | 205 kts | 340° |
| 2026-04-25 22:45 | 42.05467 | -83.41065 | 3993 ft | 201 kts | 340° |
| 2026-04-25 22:45 | 42.06755 | -83.41781 | 3612 ft | 199 kts | 339° |
| 2026-04-25 22:46 | 42.08032 | -83.42390 | 3232 ft | 196 kts | 352° |
| 2026-04-25 22:46 | 42.09355 | -83.42396 | 2970 ft | 186 kts | 12° |
| 2026-04-25 22:46 | 42.10557 | -83.41801 | 2740 ft | 185 kts | 28° |
| 2026-04-25 22:46 | 42.11684 | -83.40972 | 2486 ft | 184 kts | 28° |
| 2026-04-25 22:47 | 42.12784 | -83.40164 | 2264 ft | 174 kts | 28° |
| 2026-04-25 22:47 | 42.13821 | -83.39402 | 2006 ft | 165 kts | 28° |
| 2026-04-25 22:47 | 42.14792 | -83.38689 | 1780 ft | 153 kts | 28° |
| 2026-04-25 22:47 | 42.15652 | -83.38056 | 1585 ft | 136 kts | 28° |
| 2026-04-25 22:48 | 42.16450 | -83.37470 | 1399 ft | 127 kts | 28° |
| 2026-04-25 22:48 | 42.17213 | -83.36909 | 1231 ft | 125 kts | 26° |
| 2026-04-25 22:48 | 42.17983 | -83.36343 | 1055 ft | 124 kts | 26° |
| 2026-04-25 22:48 | 42.18754 | -83.35775 | 876 ft | 125 kts | 28° |
| 2026-04-25 22:49 | 42.19520 | -83.35212 | 713 ft | 124 kts | 26° |
| 2026-04-25 22:49 | 42.20233 | -83.34697 | 648 ft | 102 kts | 30° |
| 2026-04-25 22:49 | 42.20710 | -83.34335 | 645 ft | 54 kts | 29° |
| 2026-04-25 22:49 | 42.20930 | -83.34207 | 646 ft | 27 kts | 13° |
| 2026-04-25 22:50 | 42.21076 | -83.34208 | 647 ft | 15 kts | 338° |
| 2026-04-25 22:50 | 42.21072 | -83.34321 | 647 ft | 14 kts | 213° |
| 2026-04-25 22:50 | 42.20984 | -83.34387 | 647 ft | 15 kts | 210° |
| 2026-04-25 22:50 | 42.20894 | -83.34457 | 647 ft | 15 kts | 206° |
| 2026-04-25 22:51 | 42.20798 | -83.34522 | 647 ft | 15 kts | 211° |
| 2026-04-25 22:51 | 42.20704 | -83.34593 | 647 ft | 16 kts | 208° |
| 2026-04-25 22:51 | 42.20607 | -83.34664 | 648 ft | 16 kts | 208° |
| 2026-04-25 22:51 | 42.20509 | -83.34736 | 648 ft | 16 kts | 208° |
| 2026-04-25 22:52 | 42.20409 | -83.34811 | 648 ft | 17 kts | 208° |
| 2026-04-25 22:52 | 42.20304 | -83.34886 | 649 ft | 17 kts | 208° |
| 2026-04-25 22:52 | 42.20206 | -83.34959 | 647 ft | 11 kts | 209° |
| 2026-04-25 22:52 | 42.20180 | -83.35009 | 648 ft | 10 kts | 265° |
| 2026-04-25 22:53 | 42.20177 | -83.35165 | 647 ft | 16 kts | 269° |
| 2026-04-25 22:53 | 42.20175 | -83.35332 | 648 ft | 19 kts | 269° |
| 2026-04-25 22:53 | 42.20172 | -83.35513 | 647 ft | 19 kts | 269° |
| 2026-04-25 22:53 | 42.20169 | -83.35676 | 648 ft | 17 kts | 269° |
| 2026-04-25 22:54 | 42.20167 | -83.35837 | 648 ft | 18 kts | 268° |
| 2026-04-25 22:54 | 42.20163 | -83.35996 | 648 ft | 16 kts | 269° |
| 2026-04-25 22:54 | 42.20169 | -83.36118 | 649 ft | 10 kts | 307° |
| 2026-04-25 22:54 | 42.20213 | -83.36116 | 648 ft | 10 kts | 26° |
| 2026-04-25 22:55 | 42.20299 | -83.36054 | 648 ft | 10 kts | 28° |
| 2026-04-25 22:55 | 42.20356 | -83.36011 | 648 ft | 9 kts | 30° |
| 2026-04-25 22:55 | 42.20390 | -83.36019 | 649 ft | 5 kts | 297° |
| 2026-04-25 22:55 | 42.20402 | -83.36051 | 648 ft | 2 kts | 297° |
| 2026-04-25 22:56 | 42.20405 | -83.36057 | 648 ft | 0 kts | 298° |